createdAt,value
2023-05-23T00:02:39.128Z,2.50
2023-05-23T00:09:03.946Z,2.43
2023-05-23T00:12:18.440Z,3.45
2023-05-23T00:18:42.706Z,2.37
2023-05-23T00:21:51.652Z,1.98
2023-05-23T00:25:04.541Z,2.33
2023-05-23T00:28:16.151Z,1.80
2023-05-23T00:31:28.531Z,1.87
2023-05-23T00:34:39.118Z,5.45
2023-05-23T00:37:46.637Z,2.75
2023-05-23T00:40:55.945Z,4.20
2023-05-23T00:44:03.735Z,2.83
2023-05-23T00:47:16.363Z,2.15
2023-05-23T00:50:28.938Z,2.27
2023-05-23T00:53:39.371Z,2.62
2023-05-23T00:56:49.446Z,2.40
2023-05-23T01:00:02.857Z,2.47
2023-05-23T01:03:15.988Z,2.30
2023-05-23T01:09:38.329Z,1.98
2023-05-23T01:12:53.170Z,2.52
2023-05-23T01:16:08.828Z,3.12
2023-05-23T01:19:30.506Z,4.72
2023-05-23T01:23:02.347Z,2.77
2023-05-23T01:26:29.037Z,3.85
2023-05-23T01:29:42.038Z,3.42
2023-05-23T01:35:59.779Z,2.92
2023-05-23T01:39:08.969Z,2.65
2023-05-23T01:42:20.757Z,2.60
2023-05-23T01:45:32.495Z,2.47
2023-05-23T01:48:43.615Z,2.37
2023-05-23T01:51:53.380Z,4.05
2023-05-23T01:55:03.429Z,2.42
2023-05-23T01:58:13.852Z,6.40
2023-05-23T02:01:27.076Z,2.77
2023-05-23T02:04:34.583Z,2.90
2023-05-23T02:07:47.468Z,5.00
2023-05-23T02:11:00.849Z,3.55
2023-05-23T02:14:11.186Z,2.40
2023-05-23T02:17:24.106Z,3.30
2023-05-23T02:20:33.742Z,4.33
2023-05-23T02:23:44.573Z,3.77
2023-05-23T02:26:56.587Z,2.85
2023-05-23T02:30:06.697Z,4.67
2023-05-23T02:33:16.246Z,3.17
2023-05-23T02:36:27.577Z,3.42
2023-05-23T02:39:38.377Z,3.90
2023-05-23T02:42:48.600Z,3.20
2023-05-23T02:45:57.637Z,6.40
2023-05-23T02:49:07.465Z,3.35
2023-05-23T02:52:17.654Z,3.22
2023-05-23T02:55:27.124Z,3.83
2023-05-23T02:58:37.621Z,4.47
2023-05-23T03:01:47.260Z,4.03
2023-05-23T03:04:56.880Z,3.60
2023-05-23T03:08:05.665Z,4.12
2023-05-23T03:11:15.693Z,4.47
2023-05-23T03:14:25.493Z,3.95
2023-05-23T03:17:36.262Z,3.40
2023-05-23T03:20:47.925Z,3.22
2023-05-23T03:23:56.112Z,4.50
2023-05-23T03:27:07.095Z,4.35
2023-05-23T03:30:19.777Z,3.95
2023-05-23T03:33:29.036Z,3.58
2023-05-23T03:36:39.575Z,4.22
2023-05-23T03:39:52.123Z,3.50
2023-05-23T03:43:08.556Z,4.45
2023-05-23T03:46:17.038Z,4.60
2023-05-23T03:49:24.593Z,4.00
2023-05-23T03:52:35.995Z,4.37
2023-05-23T03:55:46.257Z,3.75
2023-05-23T03:58:55.303Z,4.00
2023-05-23T04:02:07.998Z,4.03
2023-05-23T04:05:16.355Z,6.05
2023-05-23T04:08:32.133Z,6.78
2023-05-23T04:11:41.363Z,5.15
2023-05-23T04:14:53.237Z,5.75
2023-05-23T04:18:04.277Z,4.03
2023-05-23T04:21:14.107Z,4.20
2023-05-23T04:24:21.641Z,4.33
2023-05-23T04:27:33.331Z,9.43
2023-05-23T04:30:45.132Z,6.55
2023-05-23T04:33:55.429Z,4.92
2023-05-23T04:40:19.678Z,6.73
2023-05-23T04:43:29.831Z,11.55
2023-05-23T04:46:42.649Z,4.72
2023-05-23T04:49:56.676Z,6.12
2023-05-23T04:53:07.960Z,5.53
2023-05-23T04:56:19.384Z,5.67
2023-05-23T04:59:31.281Z,5.53
2023-05-23T05:02:42.060Z,4.70
2023-05-23T05:05:51.335Z,4.60
2023-05-23T05:09:02.831Z,5.78
2023-05-23T05:12:13.523Z,4.87
2023-05-23T05:15:24.323Z,4.72
2023-05-23T05:18:35.928Z,6.53
2023-05-23T05:21:45.365Z,4.97
2023-05-23T05:24:54.676Z,4.33
2023-05-23T05:28:03.868Z,7.28
2023-05-23T05:31:15.600Z,4.53
2023-05-23T05:34:25.960Z,5.03
2023-05-23T05:37:33.577Z,3.72
2023-05-23T05:40:46.007Z,4.30
2023-05-23T05:43:57.010Z,4.67
2023-05-23T05:47:07.208Z,4.05
2023-05-23T05:50:20.294Z,4.97
2023-05-23T05:53:31.213Z,3.42
2023-05-23T05:56:41.257Z,3.87
2023-05-23T05:59:52.931Z,3.80
2023-05-23T06:03:04.172Z,4.80
2023-05-23T06:06:13.711Z,4.42
2023-05-23T06:09:24.010Z,4.15
2023-05-23T06:12:33.223Z,4.97
2023-05-23T06:15:43.195Z,4.25
2023-05-23T06:18:50.780Z,4.40
2023-05-23T06:22:00.813Z,4.78
2023-05-23T06:25:09.803Z,4.15
2023-05-23T06:28:19.531Z,3.90
2023-05-23T06:31:32.181Z,4.35
2023-05-23T06:34:40.281Z,3.67
2023-05-23T06:37:51.061Z,3.70
2023-05-23T06:41:00.362Z,4.97
2023-05-23T06:44:12.912Z,3.85
2023-05-23T06:47:25.010Z,5.22
2023-05-23T06:50:32.470Z,4.75
2023-05-23T06:53:46.103Z,3.17
2023-05-23T06:56:56.886Z,4.92
2023-05-23T07:00:08.254Z,3.90
2023-05-23T07:03:19.819Z,3.45
2023-05-23T07:06:30.051Z,4.60
2023-05-23T07:09:42.258Z,3.65
2023-05-23T07:12:50.030Z,3.57
2023-05-23T07:16:02.071Z,3.55
2023-05-23T07:19:10.720Z,4.15
2023-05-23T07:22:22.054Z,3.67
2023-05-23T07:25:33.093Z,3.15
2023-05-23T07:28:44.872Z,3.58
2023-05-23T07:31:55.460Z,2.85
2023-05-23T07:35:07.395Z,3.22
2023-05-23T07:38:17.424Z,3.33
2023-05-23T07:41:25.632Z,3.52
2023-05-23T07:44:35.722Z,3.72
2023-05-23T07:47:46.452Z,4.00
2023-05-23T07:50:59.212Z,3.37
2023-05-23T07:54:08.573Z,4.22
2023-05-23T07:57:19.813Z,4.28
2023-05-23T08:00:30.501Z,3.05
2023-05-23T08:03:41.362Z,3.12
2023-05-23T08:07:04.076Z,3.25
2023-05-23T08:10:04.214Z,3.58
2023-05-23T08:13:13.041Z,4.37
2023-05-23T08:16:24.771Z,3.05
2023-05-23T08:19:36.107Z,2.83
2023-05-23T08:22:46.163Z,3.17
2023-05-23T08:25:57.857Z,3.77
2023-05-23T08:29:11.395Z,4.40
2023-05-23T08:32:21.913Z,2.92
2023-05-23T08:35:35.537Z,3.02
2023-05-23T08:38:46.271Z,3.25
2023-05-23T08:41:57.533Z,4.45
2023-05-23T08:45:09.695Z,4.65
2023-05-23T08:48:21.551Z,3.10
2023-05-23T08:51:34.015Z,3.98
2023-05-23T08:54:44.157Z,2.98
2023-05-23T08:57:54.138Z,3.85
2023-05-23T09:01:07.119Z,3.33
2023-05-23T09:04:20.267Z,3.00
2023-05-23T09:10:37.824Z,3.45
2023-05-23T09:13:48.433Z,4.17
2023-05-23T09:16:58.124Z,3.42
2023-05-23T09:20:07.498Z,2.58
2023-05-23T09:23:19.985Z,2.47
2023-05-23T09:26:29.832Z,3.30
2023-05-23T09:29:44.668Z,3.02
2023-05-23T09:33:07.784Z,3.60
2023-05-23T09:36:18.800Z,3.02
2023-05-23T09:39:28.030Z,3.12
2023-05-23T09:42:40.362Z,2.80
2023-05-23T09:45:51.399Z,3.90
2023-05-23T09:49:03.360Z,3.05
2023-05-23T09:52:17.367Z,3.33
2023-05-23T09:55:26.600Z,2.87
2023-05-23T09:58:36.709Z,3.12
2023-05-23T10:01:47.578Z,2.67
2023-05-23T10:04:58.806Z,3.98
2023-05-23T10:08:12.946Z,3.52
2023-05-23T10:12:08.266Z,2.65
2023-05-23T10:15:20.235Z,3.02
2023-05-23T10:18:29.215Z,2.90
2023-05-23T10:21:41.046Z,3.05
2023-05-23T10:24:52.031Z,2.25
2023-05-23T10:28:03.890Z,2.25
2023-05-23T10:31:16.543Z,3.22
2023-05-23T10:34:33.004Z,3.83
2023-05-23T10:37:45.276Z,3.00
2023-05-23T10:40:57.454Z,2.43
2023-05-23T10:44:09.844Z,3.00
2023-05-23T10:47:21.345Z,2.83
2023-05-23T10:50:42.438Z,2.58
2023-05-23T10:53:55.761Z,2.62
2023-05-23T10:57:14.638Z,2.30
2023-05-23T11:00:23.026Z,2.83
2023-05-23T11:03:38.735Z,2.70
2023-05-23T11:06:49.885Z,3.25
2023-05-23T11:10:16.838Z,5.10
2023-05-23T11:13:24.477Z,2.92
2023-05-23T11:16:34.667Z,3.22
2023-05-23T11:19:44.218Z,2.92
2023-05-23T11:23:05.965Z,2.37
2023-05-23T11:26:34.540Z,2.45
2023-05-23T11:29:44.408Z,2.35
2023-05-23T11:32:56.394Z,3.60
2023-05-23T11:36:07.881Z,3.70
2023-05-23T11:39:18.325Z,1.95
2023-05-23T11:42:28.956Z,2.05
2023-05-23T11:45:39.554Z,1.67
2023-05-23T11:48:51.699Z,2.05
2023-05-23T11:52:01.871Z,1.63
2023-05-23T11:55:12.403Z,1.80
2023-05-23T11:58:23.276Z,2.30
2023-05-23T12:01:38.938Z,2.05
2023-05-23T12:04:47.725Z,2.55
2023-05-23T12:08:00.172Z,1.42
2023-05-23T12:11:08.560Z,1.92
2023-05-23T12:14:22.736Z,1.70
2023-05-23T12:17:33.748Z,1.77
2023-05-23T12:20:47.427Z,1.60
2023-05-23T12:23:55.630Z,1.90
2023-05-23T12:27:11.688Z,7.28
2023-05-23T12:30:20.800Z,2.17
2023-05-23T12:33:29.726Z,1.05
2023-05-23T12:36:48.699Z,1.95
2023-05-23T12:39:52.566Z,1.70
2023-05-23T12:43:04.582Z,2.67
2023-05-23T12:46:14.000Z,2.62
2023-05-23T12:49:25.180Z,1.25
2023-05-23T12:52:38.045Z,2.08
2023-05-23T12:55:48.039Z,2.40
2023-05-23T12:58:58.036Z,2.47
2023-05-23T13:02:08.392Z,2.10
2023-05-23T13:05:17.369Z,1.87
2023-05-23T13:08:29.173Z,1.37
2023-05-23T13:11:39.718Z,1.62
2023-05-23T13:14:51.032Z,1.40
2023-05-23T13:18:03.013Z,2.05
2023-05-23T13:21:12.607Z,2.67
2023-05-23T13:24:22.631Z,1.65
2023-05-23T13:27:31.378Z,1.30
2023-05-23T13:30:39.011Z,1.45
2023-05-23T13:33:48.715Z,1.30
2023-05-23T13:36:59.586Z,1.90
2023-05-23T13:40:12.757Z,1.60
2023-05-23T13:46:31.282Z,1.40
2023-05-23T13:49:40.532Z,2.17
2023-05-23T13:52:51.393Z,1.70
2023-05-23T13:56:02.094Z,1.85
2023-05-23T13:59:12.791Z,3.52
2023-05-23T14:02:23.579Z,2.17
2023-05-23T14:05:34.705Z,2.10
2023-05-23T14:08:44.574Z,1.75
2023-05-23T14:11:56.862Z,1.50
2023-05-23T14:15:05.413Z,1.92
2023-05-23T14:18:15.720Z,2.17
2023-05-23T14:21:27.948Z,1.85
2023-05-23T14:24:35.383Z,1.90
2023-05-23T14:27:43.676Z,1.87
2023-05-23T14:30:52.682Z,1.47
2023-05-23T14:34:02.548Z,3.90
2023-05-23T14:37:11.571Z,1.62
2023-05-23T14:40:24.916Z,1.65
2023-05-23T14:43:34.284Z,2.92
2023-05-23T14:46:46.523Z,1.60
2023-05-23T14:49:54.003Z,1.50
2023-05-23T14:53:01.710Z,1.65
2023-05-23T14:56:11.422Z,1.27
2023-05-23T14:59:24.846Z,1.15
2023-05-23T15:02:36.282Z,1.12
2023-05-23T15:05:49.200Z,1.92
2023-05-23T15:09:00.537Z,1.47
2023-05-23T15:12:11.573Z,1.60
2023-05-23T15:15:24.896Z,1.27
2023-05-23T15:18:41.247Z,1.45
2023-05-23T15:21:51.443Z,1.20
2023-05-23T15:25:00.298Z,1.55
2023-05-23T15:28:12.730Z,0.90
2023-05-23T15:31:21.836Z,1.27
2023-05-23T15:34:32.130Z,1.57
2023-05-23T15:37:44.038Z,3.40
2023-05-23T15:40:56.415Z,5.53
2023-05-23T15:44:09.064Z,1.47
2023-05-23T15:47:16.767Z,2.17
2023-05-23T15:50:26.878Z,1.77
2023-05-23T15:53:47.781Z,2.15
2023-05-23T15:56:46.711Z,1.65
2023-05-23T15:59:55.924Z,1.20
2023-05-23T16:03:05.165Z,2.60
2023-05-23T16:06:14.168Z,1.77
2023-05-23T16:09:25.042Z,1.95
2023-05-23T16:12:34.856Z,1.55
2023-05-23T16:15:45.960Z,1.70
2023-05-23T16:18:58.437Z,3.62
2023-05-23T16:22:11.695Z,0.85
2023-05-23T16:25:22.931Z,1.27
2023-05-23T16:28:31.904Z,1.92
2023-05-23T16:31:41.394Z,1.75
2023-05-23T16:34:54.496Z,1.75
2023-05-23T16:38:01.283Z,1.82
2023-05-23T16:41:12.656Z,1.00
2023-05-23T16:44:21.718Z,1.27
2023-05-23T16:47:31.910Z,1.82
2023-05-23T16:50:42.448Z,1.70
2023-05-23T16:53:50.970Z,1.25
2023-05-23T16:57:02.573Z,1.80
2023-05-23T17:00:13.265Z,1.72
2023-05-23T17:03:20.816Z,1.42
2023-05-23T17:06:29.124Z,2.35
2023-05-23T17:09:38.600Z,1.25
2023-05-23T17:12:46.372Z,3.50
2023-05-23T17:15:55.392Z,1.65
2023-05-23T17:19:07.122Z,1.50
2023-05-23T17:22:18.012Z,2.10
2023-05-23T17:25:27.244Z,2.85
2023-05-23T17:28:36.832Z,1.72
2023-05-23T17:35:02.842Z,1.83
2023-05-23T17:38:11.125Z,1.47
2023-05-23T17:41:22.472Z,1.37
2023-05-23T17:44:33.341Z,2.15
2023-05-23T17:47:42.300Z,3.40
2023-05-23T17:50:53.453Z,2.95
2023-05-23T17:54:01.682Z,2.50
2023-05-23T17:57:11.804Z,1.40
2023-05-23T18:00:23.347Z,2.50
2023-05-23T18:03:34.333Z,1.45
2023-05-23T18:06:45.061Z,2.02
2023-05-23T18:09:55.346Z,0.88
2023-05-23T18:13:05.943Z,1.32
2023-05-23T18:16:14.111Z,1.37
2023-05-23T18:19:23.289Z,1.27
2023-05-23T18:22:35.945Z,1.55
2023-05-23T18:25:44.249Z,0.93
2023-05-23T18:28:53.610Z,2.45
2023-05-23T18:32:03.651Z,1.60
2023-05-23T18:35:15.314Z,1.67
2023-05-23T18:38:25.259Z,1.90
2023-05-23T18:41:34.229Z,1.72
2023-05-23T18:44:43.378Z,3.83
2023-05-23T18:47:51.736Z,1.32
2023-05-23T18:51:01.223Z,2.40
2023-05-23T18:54:13.138Z,1.92
2023-05-23T18:57:21.180Z,4.05
2023-05-23T19:00:31.921Z,1.67
2023-05-23T19:03:43.728Z,1.80
2023-05-23T19:06:53.053Z,1.87
2023-05-23T19:10:01.308Z,1.45
2023-05-23T19:13:13.347Z,1.95
2023-05-23T19:16:24.648Z,0.80
2023-05-23T19:19:33.824Z,1.42
2023-05-23T19:22:51.427Z,3.05
2023-05-23T19:25:52.409Z,0.85
2023-05-23T19:29:06.197Z,2.58
2023-05-23T19:32:15.108Z,1.65
2023-05-23T19:35:24.982Z,2.42
2023-05-23T19:38:32.640Z,1.30
2023-05-23T19:41:41.618Z,1.27
2023-05-23T19:44:52.786Z,5.08
2023-05-23T19:48:02.393Z,1.82
2023-05-23T19:51:14.873Z,3.05
2023-05-23T19:54:24.761Z,2.12
2023-05-23T19:57:32.514Z,2.10
2023-05-23T20:00:41.151Z,2.45
2023-05-23T20:03:49.116Z,1.98
2023-05-23T20:06:58.322Z,1.62
2023-05-23T20:10:10.373Z,2.05
2023-05-23T20:13:19.850Z,2.50
2023-05-23T20:16:29.922Z,2.33
2023-05-23T20:19:39.662Z,2.27
2023-05-23T20:22:49.730Z,3.25
2023-05-23T20:25:58.083Z,4.28
2023-05-23T20:29:08.105Z,1.70
2023-05-23T20:32:19.989Z,1.70
2023-05-23T20:35:29.842Z,1.40
2023-05-23T20:38:38.177Z,3.55
2023-05-23T20:41:49.935Z,2.05
2023-05-23T20:45:00.983Z,2.40
2023-05-23T20:48:10.353Z,1.42
2023-05-23T20:51:21.498Z,5.15
2023-05-23T20:54:29.996Z,1.80
2023-05-23T20:57:39.472Z,6.42
2023-05-23T21:00:50.460Z,1.72
2023-05-23T21:03:58.638Z,3.17
2023-05-23T21:07:09.822Z,2.92
2023-05-23T21:10:19.411Z,2.55
2023-05-23T21:13:26.829Z,1.95
2023-05-23T21:16:38.504Z,1.60
2023-05-23T21:19:50.020Z,2.22
2023-05-23T21:22:59.272Z,4.05
2023-05-23T21:26:10.446Z,7.45
2023-05-23T21:29:19.040Z,2.08
2023-05-23T21:32:29.246Z,4.70
2023-05-23T21:35:41.402Z,2.20
2023-05-23T21:38:51.940Z,2.40
2023-05-23T21:42:01.734Z,5.42
2023-05-23T21:45:11.190Z,3.02
2023-05-23T21:48:18.777Z,7.55
2023-05-23T21:51:29.339Z,12.10
2023-05-23T21:54:38.471Z,7.08
2023-05-23T21:57:48.443Z,13.18
2023-05-23T22:00:58.106Z,7.37
2023-05-23T22:04:05.871Z,11.28
2023-05-23T22:07:15.619Z,12.07
2023-05-23T22:10:23.204Z,9.75
2023-05-23T22:13:33.258Z,15.48
2023-05-23T22:16:42.376Z,6.53
2023-05-23T22:19:54.408Z,7.92
2023-05-23T22:23:05.305Z,4.78
2023-05-23T22:26:18.208Z,5.47
2023-05-23T22:29:28.064Z,7.67
2023-05-23T22:32:37.745Z,5.12
2023-05-23T22:35:47.893Z,4.67
2023-05-23T22:38:59.978Z,8.28
2023-05-23T22:42:10.236Z,4.43
2023-05-23T22:45:22.737Z,6.87
2023-05-23T22:48:35.261Z,8.33
2023-05-23T22:51:45.296Z,3.87
2023-05-23T22:54:56.259Z,5.03
2023-05-23T22:58:08.714Z,7.37
2023-05-23T23:01:22.003Z,5.60
2023-05-23T23:04:33.611Z,12.63
2023-05-23T23:07:44.554Z,4.12
2023-05-23T23:10:57.863Z,8.60
2023-05-23T23:14:10.286Z,3.83
2023-05-23T23:20:39.386Z,3.75
2023-05-23T23:23:51.202Z,6.17
2023-05-23T23:27:02.917Z,8.43
2023-05-23T23:30:17.230Z,3.20
2023-05-23T23:33:27.433Z,7.85
2023-05-23T23:36:42.082Z,5.90
2023-05-23T23:39:54.776Z,5.00
2023-05-23T23:43:06.809Z,7.53
2023-05-23T23:46:19.452Z,3.23
2023-05-23T23:49:32.659Z,6.30
2023-05-23T23:52:42.327Z,4.10
2023-05-23T23:55:53.414Z,5.92
2023-05-23T23:59:06.695Z,4.37
